sensor_id;sensor_type;location;lat;lon;timestamp;pressure;altitude;pressure_sealevel;temperature;humidity
60437;BME280;46289;51.992;4.498;2023-03-25T00:00:03;100295.72;;;9.32;74.85
60437;BME280;46289;51.992;4.498;2023-03-25T00:02:17;100298.25;;;9.34;74.97
60437;BME280;46289;51.992;4.498;2023-03-25T00:04:25;100303.50;;;9.34;75.02
60437;BME280;46289;51.992;4.498;2023-03-25T00:06:30;100300.88;;;9.34;74.75
60437;BME280;46289;51.992;4.498;2023-03-25T00:08:38;100302.63;;;9.35;75.11
60437;BME280;46289;51.992;4.498;2023-03-25T00:10:43;100295.66;;;9.34;74.37
60437;BME280;46289;51.992;4.498;2023-03-25T00:12:48;100293.03;;;9.34;74.38
60437;BME280;46289;51.992;4.498;2023-03-25T00:14:52;100289.59;;;9.32;74.62
60437;BME280;46289;51.992;4.498;2023-03-25T00:16:59;100286.22;;;9.30;74.54
60437;BME280;46289;51.992;4.498;2023-03-25T00:19:04;100285.44;;;9.28;74.81
60437;BME280;46289;51.992;4.498;2023-03-25T00:21:13;100298.47;;;9.29;74.86
60437;BME280;46289;51.992;4.498;2023-03-25T00:23:20;100300.38;;;9.26;75.00
60437;BME280;46289;51.992;4.498;2023-03-25T00:25:25;100282.88;;;9.26;75.15
60437;BME280;46289;51.992;4.498;2023-03-25T00:27:30;100291.56;;;9.27;74.97
60437;BME280;46289;51.992;4.498;2023-03-25T00:29:36;100269.75;;;9.26;74.73
60437;BME280;46289;51.992;4.498;2023-03-25T00:31:40;100290.69;;;9.28;74.90
60437;BME280;46289;51.992;4.498;2023-03-25T00:33:48;100283.72;;;9.27;74.74
60437;BME280;46289;51.992;4.498;2023-03-25T00:35:54;100281.09;;;9.27;75.36
60437;BME280;46289;51.992;4.498;2023-03-25T00:38:04;100292.50;;;9.26;75.13
60437;BME280;46289;51.992;4.498;2023-03-25T00:40:11;100282.16;;;9.22;75.54
60437;BME280;46289;51.992;4.498;2023-03-25T00:42:17;100291.72;;;9.23;75.32
60437;BME280;46289;51.992;4.498;2023-03-25T00:44:29;100285.56;;;9.25;75.89
60437;BME280;46289;51.992;4.498;2023-03-25T00:46:36;100296.06;;;9.25;75.86
60437;BME280;46289;51.992;4.498;2023-03-25T00:48:42;100287.41;;;9.22;76.08
60437;BME280;46289;51.992;4.498;2023-03-25T00:50:47;100286.56;;;9.22;76.14
60437;BME280;46289;51.992;4.498;2023-03-25T00:52:53;100284.78;;;9.22;76.27
60437;BME280;46289;51.992;4.498;2023-03-25T00:55:01;100282.16;;;9.22;76.00
60437;BME280;46289;51.992;4.498;2023-03-25T00:57:06;100270.84;;;9.22;75.75
60437;BME280;46289;51.992;4.498;2023-03-25T00:59:11;100290.09;;;9.21;76.13
60437;BME280;46289;51.992;4.498;2023-03-25T01:01:18;100279.44;;;9.24;75.89
60437;BME280;46289;51.992;4.498;2023-03-25T01:03:24;100280.44;;;9.21;76.53
60437;BME280;46289;51.992;4.498;2023-03-25T01:05:31;100275.28;;;9.20;77.01
60437;BME280;46289;51.992;4.498;2023-03-25T01:07:37;100284.31;;;9.13;78.13
60437;BME280;46289;51.992;4.498;2023-03-25T01:09:42;100277.59;;;9.07;78.04
60437;BME280;46289;51.992;4.498;2023-03-25T01:11:50;100289.00;;;9.06;78.73
60437;BME280;46289;51.992;4.498;2023-03-25T01:13:56;100279.28;;;9.08;78.55
60437;BME280;46289;51.992;4.498;2023-03-25T01:16:05;100292.50;;;9.05;78.43
60437;BME280;46289;51.992;4.498;2023-03-25T01:18:12;100285.63;;;9.02;78.72
60437;BME280;46289;51.992;4.498;2023-03-25T01:20:17;100277.00;;;9.00;79.02
60437;BME280;46289;51.992;4.498;2023-03-25T01:22:22;100289.13;;;9.03;78.96
60437;BME280;46289;51.992;4.498;2023-03-25T01:24:27;100281.47;;;8.98;79.20
60437;BME280;46289;51.992;4.498;2023-03-25T01:26:32;100292.97;;;8.94;79.97
60437;BME280;46289;51.992;4.498;2023-03-25T01:28:40;100284.31;;;8.92;79.64
60437;BME280;46289;51.992;4.498;2023-03-25T01:30:46;100278.19;;;8.93;80.08
60437;BME280;46289;51.992;4.498;2023-03-25T01:32:50;100288.91;;;8.87;80.39
60437;BME280;46289;51.992;4.498;2023-03-25T01:34:55;100278.38;;;8.89;80.83
60437;BME280;46289;51.992;4.498;2023-03-25T01:37:00;100281.84;;;8.89;81.05
60437;BME280;46289;51.992;4.498;2023-03-25T01:39:07;100292.31;;;8.89;81.26
60437;BME280;46289;51.992;4.498;2023-03-25T01:41:12;100275.03;;;8.85;81.25
60437;BME280;46289;51.992;4.498;2023-03-25T01:43:17;100272.47;;;8.84;81.58
60437;BME280;46289;51.992;4.498;2023-03-25T01:45:26;100268.97;;;8.85;81.50
60437;BME280;46289;51.992;4.498;2023-03-25T01:47:33;100269.94;;;8.82;81.36
60437;BME280;46289;51.992;4.498;2023-03-25T01:49:40;100263.81;;;8.82;81.05
60437;BME280;46289;51.992;4.498;2023-03-25T01:51:48;100274.25;;;8.83;81.45
60437;BME280;46289;51.992;4.498;2023-03-25T01:53:54;100270.84;;;8.81;81.46
60437;BME280;46289;51.992;4.498;2023-03-25T01:56:01;100281.13;;;8.86;81.23
60437;BME280;46289;51.992;4.498;2023-03-25T01:58:12;100265.53;;;8.83;81.36
60437;BME280;46289;51.992;4.498;2023-03-25T02:00:20;100268.16;;;8.83;81.39
60437;BME280;46289;51.992;4.498;2023-03-25T02:02:30;100264.69;;;8.82;81.34
60437;BME280;46289;51.992;4.498;2023-03-25T02:04:45;100263.56;;;8.88;80.63
60437;BME280;46289;51.992;4.498;2023-03-25T02:07:00;100257.53;;;8.86;80.93
60437;BME280;46289;51.992;4.498;2023-03-25T02:09:10;100252.31;;;8.86;80.83
60437;BME280;46289;51.992;4.498;2023-03-25T02:11:15;100263.72;;;8.85;81.33
60437;BME280;46289;51.992;4.498;2023-03-25T02:13:20;100269.81;;;8.85;81.34
60437;BME280;46289;51.992;4.498;2023-03-25T02:15:35;100263.72;;;8.85;81.34
60437;BME280;46289;51.992;4.498;2023-03-25T02:18:17;100256.75;;;8.84;81.14
60437;BME280;46289;51.992;4.498;2023-03-25T02:23:34;100253.22;;;8.85;81.21
60437;BME280;46289;51.992;4.498;2023-03-25T02:28:20;100246.94;;;8.89;81.38
60437;BME280;46289;51.992;4.498;2023-03-25T02:30:40;100253.94;;;8.88;81.62
60437;BME280;46289;51.992;4.498;2023-03-25T02:33:18;100241.69;;;8.89;81.45
60437;BME280;46289;51.992;4.498;2023-03-25T02:35:43;100221.38;;;8.94;81.47
60437;BME280;46289;51.992;4.498;2023-03-25T02:38:28;100235.47;;;8.91;81.66
60437;BME280;46289;51.992;4.498;2023-03-25T02:40:43;100244.16;;;8.92;81.54
60437;BME280;46289;51.992;4.498;2023-03-25T02:42:53;100239.72;;;8.94;81.46
60437;BME280;46289;51.992;4.498;2023-03-25T02:45:04;100238.03;;;8.93;81.29
60437;BME280;46289;51.992;4.498;2023-03-25T02:47:15;100237.25;;;8.91;81.63
60437;BME280;46289;51.992;4.498;2023-03-25T02:49:24;100234.44;;;8.95;81.28
60437;BME280;46289;51.992;4.498;2023-03-25T02:51:34;100229.25;;;8.94;81.47
60437;BME280;46289;51.992;4.498;2023-03-25T02:53:47;100229.25;;;8.94;81.13
60437;BME280;46289;51.992;4.498;2023-03-25T02:55:56;100225.03;;;8.90;81.42
60437;BME280;46289;51.992;4.498;2023-03-25T02:58:05;100232.91;;;8.90;81.48
60437;BME280;46289;51.992;4.498;2023-03-25T03:00:14;100228.44;;;8.92;81.57
60437;BME280;46289;51.992;4.498;2023-03-25T03:02:23;100237.94;;;8.94;81.00
60437;BME280;46289;51.992;4.498;2023-03-25T03:04:29;100231.88;;;8.94;81.16
60437;BME280;46289;51.992;4.498;2023-03-25T03:06:37;100224.78;;;8.96;81.04
60437;BME280;46289;51.992;4.498;2023-03-25T03:08:58;100216.13;;;8.94;81.82
60437;BME280;46289;51.992;4.498;2023-03-25T03:11:11;100213.00;;;8.86;82.33
60437;BME280;46289;51.992;4.498;2023-03-25T03:13:22;100203.22;;;8.89;82.77
60437;BME280;46289;51.992;4.498;2023-03-25T03:15:36;100234.75;;;8.88;83.84
60437;BME280;46289;51.992;4.498;2023-03-25T03:17:49;100212.91;;;8.87;83.65
60437;BME280;46289;51.992;4.498;2023-03-25T03:20:10;100198.88;;;8.69;85.42
60437;BME280;46289;51.992;4.498;2023-03-25T03:22:26;100199.91;;;8.65;86.03
60437;BME280;46289;51.992;4.498;2023-03-25T03:24:41;100214.06;;;8.61;86.18
60437;BME280;46289;51.992;4.498;2023-03-25T03:26:53;100191.41;;;8.60;86.17
60437;BME280;46289;51.992;4.498;2023-03-25T03:29:06;100211.63;;;8.56;86.91
60437;BME280;46289;51.992;4.498;2023-03-25T03:31:19;100228.25;;;8.55;87.03
60437;BME280;46289;51.992;4.498;2023-03-25T03:33:49;100215.16;;;8.55;86.99
60437;BME280;46289;51.992;4.498;2023-03-25T03:35:59;100235.38;;;8.52;87.28
60437;BME280;46289;51.992;4.498;2023-03-25T03:38:08;100217.84;;;8.54;86.81
60437;BME280;46289;51.992;4.498;2023-03-25T03:40:20;100219.81;;;8.49;87.46
60437;BME280;46289;51.992;4.498;2023-03-25T03:42:31;100232.91;;;8.49;87.71
60437;BME280;46289;51.992;4.498;2023-03-25T03:44:38;100225.88;;;8.49;87.59
60437;BME280;46289;51.992;4.498;2023-03-25T03:46:50;100233.69;;;8.51;86.60
60437;BME280;46289;51.992;4.498;2023-03-25T03:48:57;100222.25;;;8.53;86.52
60437;BME280;46289;51.992;4.498;2023-03-25T03:51:08;100225.84;;;8.51;86.68
60437;BME280;46289;51.992;4.498;2023-03-25T03:53:17;100239.59;;;8.56;85.62
60437;BME280;46289;51.992;4.498;2023-03-25T03:55:31;100219.41;;;8.58;85.51
60437;BME280;46289;51.992;4.498;2023-03-25T03:57:41;100229.78;;;8.61;84.55
60437;BME280;46289;51.992;4.498;2023-03-25T03:59:54;100235.91;;;8.60;84.35
60437;BME280;46289;51.992;4.498;2023-03-25T04:02:01;100221.97;;;8.60;84.85
60437;BME280;46289;51.992;4.498;2023-03-25T04:04:21;100237.69;;;8.60;84.71
60437;BME280;46289;51.992;4.498;2023-03-25T04:06:36;100232.41;;;8.61;84.31
60437;BME280;46289;51.992;4.498;2023-03-25T04:09:09;100226.38;;;8.59;84.01
60437;BME280;46289;51.992;4.498;2023-03-25T04:11:28;100224.72;;;8.56;83.75
60437;BME280;46289;51.992;4.498;2023-03-25T04:13:43;100227.72;;;8.47;84.23
60437;BME280;46289;51.992;4.498;2023-03-25T04:15:59;100223.94;;;8.54;83.61
60437;BME280;46289;51.992;4.498;2023-03-25T04:18:27;100226.59;;;8.53;83.87
60437;BME280;46289;51.992;4.498;2023-03-25T04:20:56;100234.53;;;8.51;84.29
60437;BME280;46289;51.992;4.498;2023-03-25T04:23:07;100243.25;;;8.52;84.91
60437;BME280;46289;51.992;4.498;2023-03-25T04:25:18;100260.47;;;8.57;84.37
60437;BME280;46289;51.992;4.498;2023-03-25T04:27:29;100230.81;;;8.57;84.39
60437;BME280;46289;51.992;4.498;2023-03-25T04:29:43;100233.44;;;8.57;84.35
60437;BME280;46289;51.992;4.498;2023-03-25T04:31:48;100241.34;;;8.55;84.65
60437;BME280;46289;51.992;4.498;2023-03-25T04:33:57;100232.63;;;8.55;84.46
60437;BME280;46289;51.992;4.498;2023-03-25T04:36:04;100234.41;;;8.54;84.22
60437;BME280;46289;51.992;4.498;2023-03-25T04:38:11;100231.84;;;8.53;84.38
60437;BME280;46289;51.992;4.498;2023-03-25T04:40:19;100252.88;;;8.51;84.36
60437;BME280;46289;51.992;4.498;2023-03-25T04:42:29;100228.47;;;8.51;83.99
60437;BME280;46289;51.992;4.498;2023-03-25T04:44:39;100238.84;;;8.52;84.18
60437;BME280;46289;51.992;4.498;2023-03-25T04:46:46;100244.31;;;8.48;84.08
60437;BME280;46289;51.992;4.498;2023-03-25T04:48:52;100247.81;;;8.47;83.92
60437;BME280;46289;51.992;4.498;2023-03-25T04:50:58;100243.50;;;8.46;83.64
60437;BME280;46289;51.992;4.498;2023-03-25T04:53:04;100247.91;;;8.45;83.51
60437;BME280;46289;51.992;4.498;2023-03-25T04:55:11;100227.97;;;8.41;83.97
60437;BME280;46289;51.992;4.498;2023-03-25T04:57:18;100242.00;;;8.39;83.79
60437;BME280;46289;51.992;4.498;2023-03-25T04:59:27;100234.06;;;8.42;83.29
60437;BME280;46289;51.992;4.498;2023-03-25T05:01:34;100251.63;;;8.38;83.11
60437;BME280;46289;51.992;4.498;2023-03-25T05:03:43;100245.59;;;8.36;82.73
60437;BME280;46289;51.992;4.498;2023-03-25T05:05:51;100264.91;;;8.33;83.19
60437;BME280;46289;51.992;4.498;2023-03-25T05:07:57;100261.56;;;8.30;83.43
60437;BME280;46289;51.992;4.498;2023-03-25T05:10:02;100263.53;;;8.25;83.73
60437;BME280;46289;51.992;4.498;2023-03-25T05:12:11;100263.53;;;8.25;83.88
60437;BME280;46289;51.992;4.498;2023-03-25T05:14:18;100247.16;;;8.20;83.84
60437;BME280;46289;51.992;4.498;2023-03-25T05:16:26;100250.50;;;8.23;83.51
60437;BME280;46289;51.992;4.498;2023-03-25T05:18:31;100257.66;;;8.18;83.72
60437;BME280;46289;51.992;4.498;2023-03-25T05:20:39;100262.06;;;8.18;83.44
60437;BME280;46289;51.992;4.498;2023-03-25T05:22:45;100250.75;;;8.17;83.40
60437;BME280;46289;51.992;4.498;2023-03-25T05:24:50;100243.78;;;8.16;83.50
60437;BME280;46289;51.992;4.498;2023-03-25T05:26:57;100257.78;;;8.15;83.19
60437;BME280;46289;51.992;4.498;2023-03-25T05:29:04;100262.09;;;8.16;83.61
60437;BME280;46289;51.992;4.498;2023-03-25T05:31:09;100259.50;;;8.16;83.47
60437;BME280;46289;51.992;4.498;2023-03-25T05:33:19;100261.09;;;8.20;83.31
60437;BME280;46289;51.992;4.498;2023-03-25T05:35:24;100264.41;;;8.24;83.16
60437;BME280;46289;51.992;4.498;2023-03-25T05:37:29;100267.78;;;8.27;83.23
60437;BME280;46289;51.992;4.498;2023-03-25T05:39:34;100260.81;;;8.26;83.36
60437;BME280;46289;51.992;4.498;2023-03-25T05:41:41;100271.13;;;8.31;83.24
60437;BME280;46289;51.992;4.498;2023-03-25T05:43:46;100265.84;;;8.32;83.26
60437;BME280;46289;51.992;4.498;2023-03-25T05:45:55;100277.19;;;8.31;84.04
60437;BME280;46289;51.992;4.498;2023-03-25T05:48:00;100279.69;;;8.34;83.52
60437;BME280;46289;51.992;4.498;2023-03-25T05:50:08;100280.50;;;8.36;83.99
60437;BME280;46289;51.992;4.498;2023-03-25T05:52:15;100276.06;;;8.39;83.47
60437;BME280;46289;51.992;4.498;2023-03-25T05:54:21;100279.66;;;8.36;83.74
60437;BME280;46289;51.992;4.498;2023-03-25T05:56:25;100283.00;;;8.40;83.31
60437;BME280;46289;51.992;4.498;2023-03-25T05:58:30;100283.91;;;8.39;83.86
60437;BME280;46289;51.992;4.498;2023-03-25T06:00:41;100284.78;;;8.39;84.15
60437;BME280;46289;51.992;4.498;2023-03-25T06:02:48;100285.63;;;8.40;84.03
60437;BME280;46289;51.992;4.498;2023-03-25T06:04:53;100274.34;;;8.38;84.77
60437;BME280;46289;51.992;4.498;2023-03-25T06:07:00;100293.53;;;8.38;84.23
60437;BME280;46289;51.992;4.498;2023-03-25T06:09:06;100286.53;;;8.39;83.63
60437;BME280;46289;51.992;4.498;2023-03-25T06:11:11;100307.47;;;8.39;83.51
60437;BME280;46289;51.992;4.498;2023-03-25T06:13:17;100295.22;;;8.41;83.13
60437;BME280;46289;51.992;4.498;2023-03-25T06:15:22;100291.66;;;8.42;82.77
60437;BME280;46289;51.992;4.498;2023-03-25T06:17:30;100301.91;;;8.48;82.54
60437;BME280;46289;51.992;4.498;2023-03-25T06:19:37;100311.59;;;8.46;82.71
60437;BME280;46289;51.992;4.498;2023-03-25T06:21:43;100302.75;;;8.48;82.12
60437;BME280;46289;51.992;4.498;2023-03-25T06:23:57;100293.94;;;8.51;82.54
60437;BME280;46289;51.992;4.498;2023-03-25T06:26:03;100299.03;;;8.54;82.75
60437;BME280;46289;51.992;4.498;2023-03-25T06:28:08;100286.78;;;8.54;82.25
60437;BME280;46289;51.992;4.498;2023-03-25T06:30:14;100304.28;;;8.54;81.96
60437;BME280;46289;51.992;4.498;2023-03-25T06:32:19;100303.34;;;8.55;81.65
60437;BME280;46289;51.992;4.498;2023-03-25T06:34:26;100307.59;;;8.57;81.32
60437;BME280;46289;51.992;4.498;2023-03-25T06:36:33;100304.81;;;8.62;81.57
60437;BME280;46289;51.992;4.498;2023-03-25T06:38:38;100309.44;;;8.55;81.60
60437;BME280;46289;51.992;4.498;2023-03-25T06:40:45;100302.31;;;8.59;81.75
60437;BME280;46289;51.992;4.498;2023-03-25T06:42:52;100312.78;;;8.59;81.64
60437;BME280;46289;51.992;4.498;2023-03-25T06:44:57;100305.72;;;8.61;81.30
60437;BME280;46289;51.992;4.498;2023-03-25T06:47:04;100295.97;;;8.65;80.65
60437;BME280;46289;51.992;4.498;2023-03-25T06:49:09;100305.34;;;8.70;80.55
60437;BME280;46289;51.992;4.498;2023-03-25T06:51:14;100309.59;;;8.73;80.84
60437;BME280;46289;51.992;4.498;2023-03-25T06:53:19;100314.66;;;8.77;81.21
60437;BME280;46289;51.992;4.498;2023-03-25T06:55:24;100310.31;;;8.76;80.13
60437;BME280;46289;51.992;4.498;2023-03-25T06:57:32;100314.78;;;8.74;80.15
60437;BME280;46289;51.992;4.498;2023-03-25T06:59:37;100307.50;;;8.81;79.76
60437;BME280;46289;51.992;4.498;2023-03-25T07:01:42;100313.41;;;8.86;79.72
60437;BME280;46289;51.992;4.498;2023-03-25T07:03:47;100320.25;;;8.90;79.32
60437;BME280;46289;51.992;4.498;2023-03-25T07:05:52;100327.13;;;8.93;79.55
60437;BME280;46289;51.992;4.498;2023-03-25T07:07:57;100321.81;;;8.94;78.99
60437;BME280;46289;51.992;4.498;2023-03-25T07:10:02;100320.03;;;8.95;78.94
60437;BME280;46289;51.992;4.498;2023-03-25T07:12:08;100321.75;;;8.96;79.22
60437;BME280;46289;51.992;4.498;2023-03-25T07:14:15;100337.66;;;8.91;79.29
60437;BME280;46289;51.992;4.498;2023-03-25T07:16:21;100320.16;;;8.92;78.38
60437;BME280;46289;51.992;4.498;2023-03-25T07:18:26;100330.47;;;8.96;78.50
60437;BME280;46289;51.992;4.498;2023-03-25T07:20:31;100324.41;;;8.94;78.90
60437;BME280;46289;51.992;4.498;2023-03-25T07:22:36;100322.53;;;8.98;77.76
60437;BME280;46289;51.992;4.498;2023-03-25T07:24:42;100336.31;;;9.03;77.25
60437;BME280;46289;51.992;4.498;2023-03-25T07:26:48;100333.59;;;9.05;77.57
60437;BME280;46289;51.992;4.498;2023-03-25T07:28:52;100328.22;;;9.08;77.35
60437;BME280;46289;51.992;4.498;2023-03-25T07:31:00;100328.19;;;9.09;77.73
60437;BME280;46289;51.992;4.498;2023-03-25T07:33:05;100325.47;;;9.11;78.00
60437;BME280;46289;51.992;4.498;2023-03-25T07:35:11;100352.56;;;9.11;78.19
60437;BME280;46289;51.992;4.498;2023-03-25T07:37:17;100334.06;;;9.14;77.50
60437;BME280;46289;51.992;4.498;2023-03-25T07:39:22;100332.34;;;9.13;77.56
60437;BME280;46289;51.992;4.498;2023-03-25T07:41:27;100330.53;;;9.15;77.53
60437;BME280;46289;51.992;4.498;2023-03-25T07:43:31;100327.97;;;9.14;77.64
60437;BME280;46289;51.992;4.498;2023-03-25T07:45:36;100338.34;;;9.17;77.58
60437;BME280;46289;51.992;4.498;2023-03-25T07:47:48;100331.00;;;9.25;77.58
60437;BME280;46289;51.992;4.498;2023-03-25T07:49:54;100345.78;;;9.26;77.41
60437;BME280;46289;51.992;4.498;2023-03-25T07:51:58;100340.53;;;9.26;77.79
60437;BME280;46289;51.992;4.498;2023-03-25T07:54:06;100325.59;;;9.28;77.41
60437;BME280;46289;51.992;4.498;2023-03-25T07:56:11;100328.09;;;9.31;77.05
60437;BME280;46289;51.992;4.498;2023-03-25T07:58:17;100339.38;;;9.33;77.00
60437;BME280;46289;51.992;4.498;2023-03-25T08:00:22;100341.28;;;9.30;77.19
60437;BME280;46289;51.992;4.498;2023-03-25T08:02:26;100343.78;;;9.33;77.04
60437;BME280;46289;51.992;4.498;2023-03-25T08:04:35;100355.69;;;9.40;76.97
60437;BME280;46289;51.992;4.498;2023-03-25T08:06:42;100348.88;;;9.36;77.12
60437;BME280;46289;51.992;4.498;2023-03-25T08:08:47;100344.19;;;9.42;76.85
60437;BME280;46289;51.992;4.498;2023-03-25T08:10:52;100371.41;;;9.40;76.62
60437;BME280;46289;51.992;4.498;2023-03-25T08:12:56;100359.84;;;9.45;76.71
60437;BME280;46289;51.992;4.498;2023-03-25T08:15:03;100354.50;;;9.47;76.94
60437;BME280;46289;51.992;4.498;2023-03-25T08:17:10;100356.44;;;9.62;76.36
60437;BME280;46289;51.992;4.498;2023-03-25T08:19:15;100363.38;;;9.63;75.86
60437;BME280;46289;51.992;4.498;2023-03-25T08:21:22;100356.25;;;9.67;76.09
60437;BME280;46289;51.992;4.498;2023-03-25T08:23:28;100359.59;;;9.71;76.21
60437;BME280;46289;51.992;4.498;2023-03-25T08:25:38;100370.28;;;9.66;75.49
60437;BME280;46289;51.992;4.498;2023-03-25T08:27:44;100371.16;;;9.66;75.24
60437;BME280;46289;51.992;4.498;2023-03-25T08:29:49;100356.81;;;9.74;75.08
60437;BME280;46289;51.992;4.498;2023-03-25T08:31:58;100375.69;;;9.82;75.31
60437;BME280;46289;51.992;4.498;2023-03-25T08:34:03;100383.13;;;9.93;76.07
60437;BME280;46289;51.992;4.498;2023-03-25T08:36:09;100365.84;;;9.87;76.15
60437;BME280;46289;51.992;4.498;2023-03-25T08:38:17;100374.16;;;9.97;75.79
60437;BME280;46289;51.992;4.498;2023-03-25T08:40:22;100376.84;;;9.95;75.32
60437;BME280;46289;51.992;4.498;2023-03-25T08:42:29;100383.53;;;10.02;74.75
60437;BME280;46289;51.992;4.498;2023-03-25T08:44:34;100368.41;;;10.07;74.60
60437;BME280;46289;51.992;4.498;2023-03-25T08:46:40;100364.94;;;10.07;75.38
60437;BME280;46289;51.992;4.498;2023-03-25T08:48:45;100366.88;;;10.03;74.93
60437;BME280;46289;51.992;4.498;2023-03-25T08:50:50;100373.97;;;10.01;75.11
60437;BME280;46289;51.992;4.498;2023-03-25T08:52:56;100374.94;;;10.18;75.00
60437;BME280;46289;51.992;4.498;2023-03-25T08:55:04;100371.56;;;10.35;74.24
60437;BME280;46289;51.992;4.498;2023-03-25T08:57:14;100378.19;;;10.43;73.81
60437;BME280;46289;51.992;4.498;2023-03-25T08:59:19;100385.28;;;10.41;73.52
60437;BME280;46289;51.992;4.498;2023-03-25T09:01:24;100380.88;;;10.42;73.43
60437;BME280;46289;51.992;4.498;2023-03-25T09:03:30;100388.94;;;10.37;73.00
60437;BME280;46289;51.992;4.498;2023-03-25T09:05:35;100369.41;;;10.24;72.87
60437;BME280;46289;51.992;4.498;2023-03-25T09:07:41;100386.03;;;10.24;72.98
60437;BME280;46289;51.992;4.498;2023-03-25T09:09:47;100392.72;;;10.31;72.96
60437;BME280;46289;51.992;4.498;2023-03-25T09:11:55;100400.97;;;10.43;73.20
60437;BME280;46289;51.992;4.498;2023-03-25T09:14:00;100370.66;;;10.36;72.08
60437;BME280;46289;51.992;4.498;2023-03-25T09:16:07;100395.13;;;10.36;72.42
60437;BME280;46289;51.992;4.498;2023-03-25T09:18:12;100399.19;;;10.43;72.10
60437;BME280;46289;51.992;4.498;2023-03-25T09:20:17;100392.66;;;10.52;72.34
60437;BME280;46289;51.992;4.498;2023-03-25T09:22:22;100398.75;;;10.52;72.76
60437;BME280;46289;51.992;4.498;2023-03-25T09:24:27;100393.44;;;10.54;72.35
60437;BME280;46289;51.992;4.498;2023-03-25T09:26:35;100391.78;;;10.51;71.29
60437;BME280;46289;51.992;4.498;2023-03-25T09:28:43;100384.56;;;10.74;70.92
60437;BME280;46289;51.992;4.498;2023-03-25T09:30:48;100389.56;;;10.80;69.66
60437;BME280;46289;51.992;4.498;2023-03-25T09:32:53;100391.09;;;10.84;69.76
60437;BME280;46289;51.992;4.498;2023-03-25T09:34:58;100387.41;;;10.88;69.05
60437;BME280;46289;51.992;4.498;2023-03-25T09:37:03;100388.50;;;11.02;69.14
60437;BME280;46289;51.992;4.498;2023-03-25T09:39:08;100388.88;;;10.94;69.56
60437;BME280;46289;51.992;4.498;2023-03-25T09:41:32;100394.75;;;10.99;69.68
60437;BME280;46289;51.992;4.498;2023-03-25T09:43:55;100386.34;;;11.10;69.85
60437;BME280;46289;51.992;4.498;2023-03-25T09:46:07;100396.84;;;11.10;69.29
60437;BME280;46289;51.992;4.498;2023-03-25T09:48:22;100394.59;;;11.37;69.38
60437;BME280;46289;51.992;4.498;2023-03-25T09:50:30;100401.31;;;11.42;68.70
60437;BME280;46289;51.992;4.498;2023-03-25T09:52:50;100414.41;;;11.27;67.91
60437;BME280;46289;51.992;4.498;2023-03-25T09:54:59;100415.34;;;11.43;67.88
60437;BME280;46289;51.992;4.498;2023-03-25T09:57:08;100415.09;;;11.65;67.58
60437;BME280;46289;51.992;4.498;2023-03-25T09:59:21;100414.53;;;11.76;67.65
60437;BME280;46289;51.992;4.498;2023-03-25T10:01:35;100418.84;;;11.77;66.12
60437;BME280;46289;51.992;4.498;2023-03-25T10:03:50;100412.69;;;11.78;66.53
60437;BME280;46289;51.992;4.498;2023-03-25T10:06:06;100421.13;;;11.50;67.20
60437;BME280;46289;51.992;4.498;2023-03-25T10:08:20;100439.03;;;11.43;67.98
60437;BME280;46289;51.992;4.498;2023-03-25T10:10:31;100427.19;;;11.34;67.20
60437;BME280;46289;51.992;4.498;2023-03-25T10:12:44;100435.53;;;11.42;67.00
60437;BME280;46289;51.992;4.498;2023-03-25T10:15:01;100433.06;;;11.39;67.86
60437;BME280;46289;51.992;4.498;2023-03-25T10:17:16;100426.25;;;11.53;67.10
60437;BME280;46289;51.992;4.498;2023-03-25T10:19:34;100428.03;;;11.52;67.48
60437;BME280;46289;51.992;4.498;2023-03-25T10:21:47;100437.31;;;11.59;66.25
60437;BME280;46289;51.992;4.498;2023-03-25T10:24:05;100442.09;;;11.69;65.52
60437;BME280;46289;51.992;4.498;2023-03-25T10:26:23;100461.06;;;11.58;65.59
60437;BME280;46289;51.992;4.498;2023-03-25T10:28:31;100462.94;;;11.56;66.27
60437;BME280;46289;51.992;4.498;2023-03-25T10:30:42;100457.38;;;11.62;65.90
60437;BME280;46289;51.992;4.498;2023-03-25T10:32:51;100463.00;;;11.37;65.58
60437;BME280;46289;51.992;4.498;2023-03-25T10:34:58;100450.38;;;11.26;66.09
60437;BME280;46289;51.992;4.498;2023-03-25T10:37:10;100463.41;;;11.47;65.49
60437;BME280;46289;51.992;4.498;2023-03-25T10:39:20;100452.56;;;11.53;65.44
60437;BME280;46289;51.992;4.498;2023-03-25T10:41:28;100441.81;;;11.75;65.53
60437;BME280;46289;51.992;4.498;2023-03-25T10:43:39;100454.97;;;11.75;65.47
60437;BME280;46289;51.992;4.498;2023-03-25T10:45:51;100455.50;;;11.64;67.12
60437;BME280;46289;51.992;4.498;2023-03-25T10:48:04;100473.00;;;11.65;66.44
60437;BME280;46289;51.992;4.498;2023-03-25T10:50:13;100470.97;;;12.05;65.32
60437;BME280;46289;51.992;4.498;2023-03-25T10:52:19;100459.22;;;11.95;65.26
60437;BME280;46289;51.992;4.498;2023-03-25T10:54:26;100472.06;;;12.01;65.72
60437;BME280;46289;51.992;4.498;2023-03-25T10:56:34;100456.91;;;11.89;65.85
60437;BME280;46289;51.992;4.498;2023-03-25T10:58:44;100470.34;;;12.17;65.97
60437;BME280;46289;51.992;4.498;2023-03-25T11:00:53;100460.22;;;12.25;64.91
60437;BME280;46289;51.992;4.498;2023-03-25T11:02:58;100475.16;;;12.09;65.41
60437;BME280;46289;51.992;4.498;2023-03-25T11:05:06;100482.09;;;12.27;65.29
60437;BME280;46289;51.992;4.498;2023-03-25T11:07:16;100476.31;;;12.37;64.50
60437;BME280;46289;51.992;4.498;2023-03-25T11:09:23;100473.22;;;12.28;63.67
60437;BME280;46289;51.992;4.498;2023-03-25T11:11:31;100471.09;;;12.19;64.60
60437;BME280;46289;51.992;4.498;2023-03-25T11:13:37;100482.63;;;12.01;65.07
60437;BME280;46289;51.992;4.498;2023-03-25T11:15:43;100480.41;;;12.09;64.74
60437;BME280;46289;51.992;4.498;2023-03-25T11:17:58;100482.75;;;11.98;64.45
60437;BME280;46289;51.992;4.498;2023-03-25T11:20:05;100482.28;;;11.90;64.28
60437;BME280;46289;51.992;4.498;2023-03-25T11:22:15;100479.81;;;11.86;64.98
60437;BME280;46289;51.992;4.498;2023-03-25T11:24:22;100481.41;;;12.40;64.68